createdAt,value
2018-04-12T00:00:57.040Z,40.53
2018-04-12T00:03:23.438Z,43.57
2018-04-12T00:05:49.706Z,38.37
2018-04-12T00:08:15.937Z,45.03
2018-04-12T00:10:42.135Z,43.33
2018-04-12T00:13:08.376Z,43.07
2018-04-12T00:15:34.765Z,39.00
2018-04-12T00:18:01.715Z,42.10
2018-04-12T00:20:28.669Z,42.50
2018-04-12T00:22:54.879Z,41.07
2018-04-12T00:25:21.867Z,47.87
2018-04-12T00:27:48.162Z,42.33
2018-04-12T00:30:15.145Z,52.93
2018-04-12T00:32:41.496Z,42.73
2018-04-12T00:35:07.708Z,42.20
2018-04-12T00:37:33.936Z,39.70
2018-04-12T00:40:00.140Z,41.30
2018-04-12T00:42:27.086Z,45.90
2018-04-12T00:44:53.392Z,43.20
2018-04-12T00:47:20.724Z,42.03
2018-04-12T00:49:48.027Z,42.63
2018-04-12T00:52:14.859Z,42.33
2018-04-12T00:54:42.954Z,49.17
2018-04-12T00:57:10.472Z,41.03
2018-04-12T00:59:38.104Z,40.47
2018-04-12T01:02:05.417Z,41.33
2018-04-12T01:04:33.127Z,36.03
2018-04-12T01:07:00.461Z,39.13
2018-04-12T01:09:28.135Z,36.70
2018-04-12T01:11:55.191Z,38.80
2018-04-12T01:14:22.308Z,33.03
2018-04-12T01:16:48.905Z,32.87
2018-04-12T01:19:15.600Z,24.47
2018-04-12T01:21:42.590Z,28.37
2018-04-12T01:24:09.603Z,28.93
2018-04-12T01:26:38.779Z,28.53
2018-04-12T01:29:05.414Z,27.70
2018-04-12T01:31:34.026Z,27.10
2018-04-12T01:34:01.683Z,28.90
2018-04-12T01:36:28.714Z,27.10
2018-04-12T01:38:54.930Z,23.67
2018-04-12T01:41:21.893Z,32.07
2018-04-12T01:43:48.126Z,23.40
2018-04-12T01:46:14.417Z,25.87
2018-04-12T01:48:40.624Z,25.13
2018-04-12T01:51:06.837Z,25.00
2018-04-12T01:53:33.060Z,22.43
2018-04-12T01:55:59.307Z,24.53
2018-04-12T01:58:25.545Z,25.10
2018-04-12T02:00:51.912Z,23.60
2018-04-12T02:03:18.169Z,26.10
2018-04-12T02:05:44.416Z,27.83
2018-04-12T02:08:10.647Z,19.53
2018-04-12T02:10:36.925Z,18.97
2018-04-12T02:13:03.910Z,25.97
2018-04-12T02:15:30.149Z,19.47
2018-04-12T02:17:56.363Z,20.47
2018-04-12T02:20:22.579Z,18.37
2018-04-12T02:22:48.853Z,19.53
2018-04-12T02:25:15.077Z,18.40
2018-04-12T02:27:41.353Z,22.60
2018-04-12T02:30:08.327Z,23.47
2018-04-12T02:32:34.540Z,20.43
2018-04-12T02:35:00.886Z,21.27
2018-04-12T02:37:27.019Z,22.17
2018-04-12T02:39:53.224Z,24.70
2018-04-12T02:42:19.476Z,19.80
2018-04-12T02:44:45.703Z,25.13
2018-04-12T02:47:11.897Z,27.43
2018-04-12T02:49:38.879Z,23.50
2018-04-12T02:52:05.124Z,22.77
2018-04-12T02:54:31.344Z,22.37
2018-04-12T02:56:57.566Z,23.93
2018-04-12T02:59:30.735Z,26.00
2018-04-12T03:01:57.334Z,24.20
2018-04-12T03:04:23.561Z,20.10
2018-04-12T03:06:51.253Z,22.90
2018-04-12T03:09:17.507Z,24.60
2018-04-12T03:11:43.787Z,23.13
2018-04-12T03:14:10.007Z,26.90
2018-04-12T03:16:36.261Z,25.83
2018-04-12T03:19:02.556Z,24.67
2018-04-12T03:21:28.806Z,30.07
2018-04-12T03:23:55.027Z,28.90
2018-04-12T03:26:21.270Z,26.50
2018-04-12T03:28:47.476Z,28.27
2018-04-12T03:31:13.691Z,27.03
2018-04-12T03:33:39.912Z,25.90
2018-04-12T03:36:06.120Z,24.47
2018-04-12T03:38:32.327Z,25.97
2018-04-12T03:40:58.948Z,28.50
2018-04-12T03:43:25.213Z,26.70
2018-04-12T03:45:51.457Z,19.50
2018-04-12T03:48:18.145Z,23.17
2018-04-12T03:50:44.349Z,26.10
2018-04-12T03:53:10.581Z,20.83
2018-04-12T03:55:36.801Z,24.30
2018-04-12T03:58:03.048Z,20.90
2018-04-12T04:00:29.756Z,19.80
2018-04-12T04:02:55.972Z,23.87
2018-04-12T04:05:22.203Z,21.50
2018-04-12T04:07:48.423Z,19.73
2018-04-12T04:10:14.638Z,23.40
2018-04-12T04:12:41.725Z,20.23
2018-04-12T04:15:20.233Z,28.50
2018-04-12T04:17:58.840Z,26.10
2018-04-12T04:20:37.292Z,20.23
2018-04-12T04:23:03.495Z,22.10
2018-04-12T04:25:30.628Z,21.93
2018-04-12T04:27:57.568Z,25.00
2018-04-12T04:30:24.559Z,21.50
2018-04-12T04:32:51.135Z,20.27
2018-04-12T04:35:17.336Z,26.13
2018-04-12T04:37:43.553Z,21.33
2018-04-12T04:40:09.773Z,31.10
2018-04-12T04:42:35.980Z,21.30
2018-04-12T04:45:02.332Z,17.87
2018-04-12T04:47:28.577Z,20.73
2018-04-12T04:49:55.242Z,20.50
2018-04-12T04:52:21.460Z,22.50
2018-04-12T04:54:49.493Z,26.70
2018-04-12T04:57:15.768Z,22.83
2018-04-12T04:59:41.985Z,25.33
2018-04-12T05:02:08.278Z,19.70
2018-04-12T05:04:34.525Z,30.73
2018-04-12T05:07:00.782Z,27.70
2018-04-12T05:09:27.988Z,22.17
2018-04-12T05:11:54.337Z,23.67
2018-04-12T05:14:20.583Z,24.50
2018-04-12T05:16:46.881Z,18.50
2018-04-12T05:19:13.125Z,27.00
2018-04-12T05:21:39.393Z,30.77
2018-04-12T05:24:06.454Z,25.37
2018-04-12T05:26:33.445Z,31.10
2018-04-12T05:28:59.730Z,24.57
2018-04-12T05:31:26.769Z,25.40
2018-04-12T05:33:53.086Z,22.93
2018-04-12T05:36:19.299Z,27.10
2018-04-12T05:38:45.544Z,29.20
2018-04-12T05:41:12.359Z,30.50
2018-04-12T05:43:38.579Z,29.93
2018-04-12T05:46:04.823Z,31.10
2018-04-12T05:48:31.090Z,30.10
2018-04-12T05:50:57.306Z,23.20
2018-04-12T05:53:24.311Z,35.40
2018-04-12T05:55:50.628Z,28.20
2018-04-12T05:58:17.608Z,24.80
2018-04-12T06:00:43.819Z,27.20
2018-04-12T06:03:10.283Z,31.87
2018-04-12T06:05:36.550Z,30.40
2018-04-12T06:08:04.002Z,29.03
2018-04-12T06:10:30.952Z,29.03
2018-04-12T06:12:57.915Z,31.50
2018-04-12T06:15:24.157Z,34.43
2018-04-12T06:17:50.455Z,27.80
2018-04-12T06:20:17.428Z,26.53
2018-04-12T06:22:43.657Z,28.90
2018-04-12T06:25:09.892Z,29.53
2018-04-12T06:27:36.103Z,27.20
2018-04-12T06:30:03.075Z,28.80
2018-04-12T06:32:29.343Z,38.30
2018-04-12T06:34:57.342Z,32.50
2018-04-12T06:37:24.305Z,28.93
2018-04-12T06:39:50.589Z,35.83
2018-04-12T06:42:16.917Z,33.50
2018-04-12T06:44:43.982Z,31.03
2018-04-12T06:47:10.205Z,31.03
2018-04-12T06:49:36.446Z,33.03
2018-04-12T06:52:03.446Z,36.43
2018-04-12T06:54:29.662Z,33.97
2018-04-12T06:56:55.876Z,30.50
2018-04-12T06:59:22.148Z,37.40
2018-04-12T07:01:48.355Z,29.33
2018-04-12T07:04:14.564Z,34.53
2018-04-12T07:06:40.801Z,35.83
2018-04-12T07:09:07.081Z,29.63
2018-04-12T07:11:34.145Z,36.80
2018-04-12T07:14:07.805Z,28.83
2018-04-12T07:16:34.801Z,34.37
2018-04-12T07:19:01.784Z,30.63
2018-04-12T07:21:28.037Z,33.33
2018-04-12T07:23:54.280Z,32.50
2018-04-12T07:26:20.506Z,27.20
2018-04-12T07:28:46.777Z,32.80
2018-04-12T07:31:13.744Z,34.37
2018-04-12T07:33:40.145Z,35.77
2018-04-12T07:36:07.088Z,37.70
2018-04-12T07:38:34.095Z,37.63
2018-04-12T07:41:00.323Z,30.87
2018-04-12T07:43:26.545Z,30.93
2018-04-12T07:45:52.789Z,30.30
2018-04-12T07:48:19.045Z,31.83
2018-04-12T07:50:46.032Z,25.57
2018-04-12T07:53:12.274Z,36.10
2018-04-12T07:55:38.476Z,40.13
2018-04-12T07:58:04.811Z,35.80
2018-04-12T08:00:30.999Z,30.63
2018-04-12T08:02:57.228Z,34.57
2018-04-12T08:05:23.470Z,33.13
2018-04-12T08:07:50.439Z,34.43
2018-04-12T08:10:17.037Z,36.17
2018-04-12T08:12:43.264Z,37.43
2018-04-12T08:15:09.545Z,33.90
2018-04-12T08:17:36.511Z,39.30
2018-04-12T08:20:02.829Z,42.63
2018-04-12T08:22:29.032Z,36.37
2018-04-12T08:24:55.994Z,35.60
2018-04-12T08:27:22.237Z,34.10
2018-04-12T08:29:48.462Z,29.20
2018-04-12T08:32:14.692Z,32.73
2018-04-12T08:34:40.906Z,42.57
2018-04-12T08:37:07.136Z,38.37
2018-04-12T08:39:33.360Z,35.70
2018-04-12T08:41:59.592Z,41.77
2018-04-12T08:44:25.837Z,38.60
2018-04-12T08:46:52.073Z,27.60
2018-04-12T08:49:18.325Z,34.07
2018-04-12T08:51:44.535Z,37.63
2018-04-12T08:54:10.828Z,39.07
2018-04-12T08:56:38.192Z,39.87
2018-04-12T08:59:05.153Z,35.23
2018-04-12T09:01:31.365Z,38.90
2018-04-12T09:03:57.625Z,37.00
2018-04-12T09:06:23.841Z,41.27
2018-04-12T09:08:50.055Z,37.20
2018-04-12T09:11:16.288Z,42.60
2018-04-12T09:13:42.512Z,36.90
2018-04-12T09:16:09.060Z,40.53
2018-04-12T09:18:35.252Z,43.27
2018-04-12T09:21:01.500Z,40.17
2018-04-12T09:23:27.784Z,40.30
2018-04-12T09:25:54.027Z,36.37
2018-04-12T09:28:21.050Z,41.30
2018-04-12T09:30:48.165Z,38.57
2018-04-12T09:33:14.392Z,39.30
2018-04-12T09:35:41.412Z,39.53
2018-04-12T09:38:08.604Z,39.60
2018-04-12T09:40:34.827Z,39.17
2018-04-12T09:43:01.049Z,41.70
2018-04-12T09:45:27.657Z,38.10
2018-04-12T09:47:53.890Z,43.47
2018-04-12T09:50:20.898Z,43.87
2018-04-12T09:52:48.028Z,42.70
2018-04-12T09:55:14.240Z,39.47
2018-04-12T09:57:40.470Z,36.47
2018-04-12T10:00:06.777Z,38.67
2018-04-12T10:02:33.067Z,39.37
2018-04-12T10:04:59.339Z,42.17
2018-04-12T10:07:32.625Z,43.30
2018-04-12T10:09:58.828Z,40.63
2018-04-12T10:12:25.320Z,39.63
2018-04-12T10:14:51.615Z,38.93
2018-04-12T10:17:17.978Z,40.90
2018-04-12T10:19:44.233Z,40.53
2018-04-12T10:22:10.443Z,36.43
2018-04-12T10:24:36.644Z,34.10
2018-04-12T10:27:03.593Z,42.30
2018-04-12T10:29:30.564Z,37.80
2018-04-12T10:31:56.796Z,41.63
2018-04-12T10:34:23.014Z,33.33
2018-04-12T10:36:49.244Z,38.00
2018-04-12T10:39:15.468Z,48.07
2018-04-12T10:41:42.438Z,38.20
2018-04-12T10:44:09.023Z,38.80
2018-04-12T10:46:35.278Z,35.73
2018-04-12T10:49:09.103Z,34.03
2018-04-12T10:51:35.369Z,27.87
2018-04-12T10:54:01.613Z,34.90
2018-04-12T10:56:27.893Z,32.73
2018-04-12T10:58:54.151Z,32.80
2018-04-12T11:01:20.376Z,36.00
2018-04-12T11:03:46.596Z,34.20
2018-04-12T11:06:12.834Z,29.73
2018-04-12T11:08:39.064Z,35.13
2018-04-12T11:11:05.333Z,33.73
2018-04-12T11:13:32.342Z,30.70
2018-04-12T11:15:58.557Z,26.90
2018-04-12T11:18:24.858Z,35.37
2018-04-12T11:20:51.090Z,33.23
2018-04-12T11:23:17.304Z,33.10
2018-04-12T11:25:44.292Z,30.03
2018-04-12T11:28:10.496Z,34.57
2018-04-12T11:30:36.750Z,30.80
2018-04-12T11:33:03.045Z,29.53
2018-04-12T11:35:30.140Z,28.40
2018-04-12T11:37:56.370Z,32.77
2018-04-12T11:40:22.623Z,30.60
2018-04-12T11:42:49.302Z,29.57
2018-04-12T11:45:15.484Z,28.50
2018-04-12T11:47:41.756Z,31.83
2018-04-12T11:50:08.025Z,28.37
2018-04-12T11:52:34.697Z,27.47
2018-04-12T11:55:00.896Z,29.83
2018-04-12T11:57:27.927Z,25.07
2018-04-12T11:59:54.196Z,25.80
2018-04-12T12:02:20.465Z,32.10
2018-04-12T12:04:47.058Z,26.03
2018-04-12T12:07:13.344Z,24.73
2018-04-12T12:09:39.572Z,28.70
2018-04-12T12:12:06.004Z,28.33
2018-04-12T12:14:32.237Z,28.47
2018-04-12T12:16:58.469Z,27.10
2018-04-12T12:19:24.701Z,28.20
2018-04-12T12:21:50.979Z,27.00
2018-04-12T12:24:17.217Z,29.07
2018-04-12T12:26:43.472Z,27.90
2018-04-12T12:29:10.082Z,25.07
2018-04-12T12:31:37.053Z,26.70
2018-04-12T12:34:03.295Z,21.30
2018-04-12T12:36:29.501Z,24.93
2018-04-12T12:38:56.464Z,29.77
2018-04-12T12:41:22.709Z,24.20
2018-04-12T12:43:49.006Z,21.93
2018-04-12T12:46:15.233Z,25.97
2018-04-12T12:48:42.221Z,24.40
2018-04-12T12:51:08.451Z,28.80
2018-04-12T12:53:34.681Z,28.17
2018-04-12T12:56:00.939Z,21.83
2018-04-12T12:58:27.381Z,23.03
2018-04-12T13:00:53.704Z,28.80
2018-04-12T13:03:19.930Z,26.07
2018-04-12T13:05:46.147Z,23.03
2018-04-12T13:08:12.367Z,21.27
2018-04-12T13:10:38.588Z,23.67
2018-04-12T13:13:04.846Z,24.90
2018-04-12T13:15:31.059Z,23.40
2018-04-12T13:17:57.656Z,25.77
2018-04-12T13:20:24.609Z,24.20
2018-04-12T13:22:51.220Z,24.47
2018-04-12T13:25:18.189Z,24.70
2018-04-12T13:27:44.422Z,27.13
2018-04-12T13:30:10.647Z,24.87
2018-04-12T13:32:37.595Z,25.50
2018-04-12T13:35:04.560Z,22.33
2018-04-12T13:37:30.800Z,29.20
2018-04-12T13:39:57.118Z,24.30
2018-04-12T13:42:23.379Z,24.00
2018-04-12T13:44:49.697Z,22.90
2018-04-12T13:47:16.186Z,22.40
2018-04-12T13:49:42.465Z,21.30
2018-04-12T13:52:08.727Z,22.80
2018-04-12T13:54:34.943Z,24.20
2018-04-12T13:57:01.179Z,17.97
2018-04-12T13:59:27.836Z,23.90
2018-04-12T14:01:54.093Z,21.67
2018-04-12T14:04:21.071Z,22.27
2018-04-12T14:06:47.329Z,22.17
2018-04-12T14:09:13.581Z,23.20
2018-04-12T14:11:40.549Z,24.53
2018-04-12T14:14:06.781Z,24.30
2018-04-12T14:16:33.032Z,21.30
2018-04-12T14:18:59.389Z,22.97
2018-04-12T14:21:26.130Z,23.60
2018-04-12T14:23:52.349Z,26.10
2018-04-12T14:26:18.561Z,22.83
2018-04-12T14:28:44.786Z,21.60
2018-04-12T14:31:11.003Z,22.73
2018-04-12T14:33:37.265Z,24.67
2018-04-12T14:36:03.499Z,21.77
2018-04-12T14:38:29.730Z,22.93
2018-04-12T14:40:55.956Z,22.57
2018-04-12T14:43:22.164Z,25.00
2018-04-12T14:45:48.378Z,22.33
2018-04-12T14:48:14.598Z,23.13
2018-04-12T14:50:41.620Z,25.37
2018-04-12T14:53:07.833Z,23.13
2018-04-12T14:55:34.046Z,27.73
2018-04-12T14:58:00.252Z,22.77
2018-04-12T15:00:26.828Z,21.73
2018-04-12T15:02:53.220Z,23.53
2018-04-12T15:05:19.420Z,24.10
2018-04-12T15:07:46.515Z,22.10
2018-04-12T15:10:12.741Z,22.87
2018-04-12T15:12:39.027Z,22.07
2018-04-12T15:15:06.040Z,22.37
2018-04-12T15:17:32.271Z,23.90
2018-04-12T15:19:58.508Z,23.90
2018-04-12T15:22:24.742Z,21.63
2018-04-12T15:24:50.969Z,25.60
2018-04-12T15:27:17.216Z,24.00
2018-04-12T15:29:44.218Z,23.27
2018-04-12T15:32:10.445Z,22.80
2018-04-12T15:34:36.700Z,24.20
2018-04-12T15:37:02.930Z,25.93
2018-04-12T15:39:29.485Z,24.77
2018-04-12T15:41:56.432Z,23.73
2018-04-12T15:44:24.232Z,23.70
2018-04-12T15:46:50.925Z,25.00
2018-04-12T15:49:17.291Z,25.87
2018-04-12T15:51:44.241Z,26.10
2018-04-12T15:54:10.536Z,24.27
2018-04-12T15:56:36.764Z,24.53
2018-04-12T15:59:03.028Z,27.80
2018-04-12T16:01:29.326Z,27.53
2018-04-12T16:03:55.552Z,24.07
2018-04-12T16:06:21.825Z,25.83
2018-04-12T16:08:48.090Z,25.10
2018-04-12T16:11:14.390Z,25.13
2018-04-12T16:13:40.702Z,25.60
2018-04-12T16:16:08.641Z,26.37
2018-04-12T16:18:34.863Z,25.57
2018-04-12T16:21:01.853Z,24.63
2018-04-12T16:23:28.094Z,25.30
2018-04-12T16:25:54.404Z,25.73
2018-04-12T16:28:20.640Z,22.77
2018-04-12T16:30:46.876Z,25.07
2018-04-12T16:33:13.100Z,24.50
2018-04-12T16:35:39.336Z,25.53
2018-04-12T16:38:05.633Z,25.93
2018-04-12T16:40:32.635Z,27.47
2018-04-12T16:42:59.210Z,25.27
2018-04-12T16:45:25.432Z,24.07
2018-04-12T16:47:51.665Z,24.73
2018-04-12T16:50:18.683Z,25.37
2018-04-12T16:52:44.905Z,29.20
2018-04-12T16:55:11.636Z,27.00
2018-04-12T16:57:38.810Z,26.30
2018-04-12T17:00:10.439Z,29.67
2018-04-12T17:02:36.656Z,27.30
2018-04-12T17:05:02.946Z,26.30
2018-04-12T17:07:29.178Z,25.50
2018-04-12T17:09:55.509Z,26.33
2018-04-12T17:12:21.810Z,25.30
2018-04-12T17:14:48.077Z,26.17
2018-04-12T17:17:14.343Z,25.97
2018-04-12T17:19:40.783Z,26.00
2018-04-12T17:22:07.042Z,27.03
2018-04-12T17:24:33.279Z,26.13
2018-04-12T17:26:59.475Z,28.27
2018-04-12T17:29:25.706Z,25.87
2018-04-12T17:31:52.034Z,29.43
2018-04-12T17:34:18.238Z,26.23
2018-04-12T17:36:44.442Z,24.50
2018-04-12T17:39:10.660Z,25.73
2018-04-12T17:41:36.915Z,25.83
2018-04-12T17:44:03.924Z,25.80
2018-04-12T17:46:30.149Z,26.37
2018-04-12T17:48:56.441Z,26.20
2018-04-12T17:51:22.684Z,25.27
2018-04-12T17:53:48.951Z,27.43
2018-04-12T17:56:15.177Z,26.37
2018-04-12T17:58:41.445Z,25.73
2018-04-12T18:01:08.457Z,24.90
2018-04-12T18:03:34.683Z,25.83
2018-04-12T18:06:00.918Z,26.17
2018-04-12T18:08:27.134Z,25.47
2018-04-12T18:10:53.466Z,25.53
2018-04-12T18:13:19.689Z,28.40
2018-04-12T18:15:46.040Z,25.07
2018-04-12T18:18:13.022Z,24.03
2018-04-12T18:20:39.256Z,23.60
2018-04-12T18:23:05.549Z,24.50
2018-04-12T18:25:31.768Z,26.83
2018-04-12T18:27:57.991Z,25.37
2018-04-12T18:30:24.242Z,24.03
2018-04-12T18:32:50.642Z,23.40
2018-04-12T18:35:16.880Z,24.33
2018-04-12T18:37:43.092Z,25.33
2018-04-12T18:40:09.312Z,24.40
2018-04-12T18:42:35.547Z,24.70
2018-04-12T18:45:01.766Z,27.13
2018-04-12T18:47:27.981Z,24.57
2018-04-12T18:49:54.472Z,25.63
2018-04-12T18:52:20.686Z,23.07
2018-04-12T18:54:46.916Z,26.35
2018-04-12T18:57:13.141Z,27.17
2018-04-12T18:59:39.385Z,30.20
2018-04-12T19:02:05.648Z,29.57
2018-04-12T19:04:31.863Z,28.17
2018-04-12T19:06:58.285Z,33.17
2018-04-12T19:09:24.487Z,28.67
2018-04-12T19:11:50.750Z,32.87
2018-04-12T19:14:17.016Z,35.33
2018-04-12T19:16:44.058Z,26.70
2018-04-12T19:19:11.191Z,27.10
2018-04-12T19:21:37.458Z,30.73
2018-04-12T19:24:04.019Z,28.93
2018-04-12T19:26:30.293Z,31.73
2018-04-12T19:28:56.776Z,27.80
2018-04-12T19:31:24.708Z,27.70
2018-04-12T19:33:51.752Z,30.40
2018-04-12T19:36:18.068Z,25.83
2018-04-12T19:38:44.362Z,27.80
2018-04-12T19:41:10.794Z,29.00
2018-04-12T19:43:37.050Z,26.37
2018-04-12T19:46:03.345Z,27.73
2018-04-12T19:48:30.392Z,28.00
2018-04-12T19:50:57.356Z,28.07
2018-04-12T19:53:23.763Z,29.07
2018-04-12T19:55:50.080Z,27.80
2018-04-12T19:58:16.300Z,28.03
2018-04-12T20:00:42.550Z,28.93
2018-04-12T20:03:11.183Z,29.07
2018-04-12T20:05:37.661Z,34.00
2018-04-12T20:08:04.054Z,32.10
2018-04-12T20:10:30.302Z,28.83
2018-04-12T20:12:56.844Z,29.07
2018-04-12T20:15:23.409Z,32.90
2018-04-12T20:17:50.537Z,30.93
2018-04-12T20:20:16.764Z,34.87
2018-04-12T20:22:43.046Z,34.10
2018-04-12T20:25:09.806Z,32.77
2018-04-12T20:27:36.032Z,31.00
2018-04-12T20:30:02.291Z,29.03
2018-04-12T20:32:28.542Z,31.50
2018-04-12T20:34:54.769Z,33.63
2018-04-12T20:37:21.044Z,33.07
2018-04-12T20:39:47.264Z,30.50
2018-04-12T20:42:13.480Z,31.80
2018-04-12T20:44:40.478Z,32.87
2018-04-12T20:47:06.714Z,31.77
2018-04-12T20:49:33.666Z,32.80
2018-04-12T20:51:59.873Z,33.53
2018-04-12T20:54:26.199Z,33.53
2018-04-12T20:56:52.486Z,30.37
2018-04-12T20:59:19.453Z,32.20
2018-04-12T21:01:46.604Z,32.60
2018-04-12T21:04:12.892Z,30.83
2018-04-12T21:06:39.677Z,30.60
2018-04-12T21:09:05.967Z,30.67
2018-04-12T21:11:32.195Z,31.93
2018-04-12T21:13:58.504Z,31.73
2018-04-12T21:16:24.756Z,32.80
2018-04-12T21:18:51.048Z,33.37
2018-04-12T21:21:17.603Z,32.63
2018-04-12T21:23:43.866Z,33.20
2018-04-12T21:26:10.857Z,37.23
2018-04-12T21:28:38.113Z,30.47
2018-04-12T21:31:04.352Z,32.90
2018-04-12T21:33:30.552Z,28.90
2018-04-12T21:35:56.773Z,32.57
2018-04-12T21:38:23.737Z,28.17
2018-04-12T21:40:49.977Z,31.60
2018-04-12T21:43:26.361Z,31.07
2018-04-12T21:45:52.944Z,31.23
2018-04-12T21:48:20.159Z,30.80
2018-04-12T21:50:46.441Z,33.63
2018-04-12T21:53:14.580Z,36.20
2018-04-12T21:55:41.033Z,31.23
2018-04-12T21:58:08.327Z,32.13
2018-04-12T22:00:34.636Z,32.80
2018-04-12T22:03:01.600Z,37.77
2018-04-12T22:05:27.830Z,30.17
2018-04-12T22:07:54.057Z,30.37
2018-04-12T22:10:20.296Z,30.60
2018-04-12T22:12:46.520Z,35.40
2018-04-12T22:15:12.732Z,30.87
2018-04-12T22:17:39.083Z,33.00
2018-04-12T22:20:05.311Z,29.30
2018-04-12T22:22:31.576Z,33.10
2018-04-12T22:24:57.812Z,32.87
2018-04-12T22:27:24.064Z,31.40
2018-04-12T22:29:51.051Z,29.70
2018-04-12T22:32:17.260Z,29.77
2018-04-12T22:34:43.522Z,32.27
2018-04-12T22:37:09.748Z,31.90
2018-04-12T22:39:35.960Z,32.20
2018-04-12T22:42:02.207Z,31.10
2018-04-12T22:44:28.425Z,32.10
2018-04-12T22:46:54.663Z,30.63
2018-04-12T22:49:20.905Z,31.97
2018-04-12T22:51:47.254Z,32.37
2018-04-12T22:54:14.265Z,34.93
2018-04-12T22:56:40.535Z,30.10
2018-04-12T22:59:06.764Z,31.00
2018-04-12T23:01:33.005Z,31.30
2018-04-12T23:03:59.959Z,29.53
2018-04-12T23:06:26.995Z,35.53
2018-04-12T23:08:53.174Z,29.40
2018-04-12T23:11:19.437Z,37.23
2018-04-12T23:13:45.694Z,32.17
2018-04-12T23:16:12.683Z,32.63
2018-04-12T23:18:39.060Z,29.37
2018-04-12T23:21:05.321Z,37.57
2018-04-12T23:23:31.534Z,32.57
2018-04-12T23:25:58.144Z,33.20
2018-04-12T23:28:24.392Z,32.37
2018-04-12T23:30:50.805Z,35.50
2018-04-12T23:33:17.387Z,34.00
2018-04-12T23:35:43.648Z,37.07
2018-04-12T23:38:09.900Z,35.93
2018-04-12T23:40:36.145Z,32.90
2018-04-12T23:43:03.129Z,38.50
2018-04-12T23:45:29.718Z,42.57
2018-04-12T23:47:55.948Z,35.67
2018-04-12T23:50:23.652Z,34.20
2018-04-12T23:52:49.918Z,36.73
2018-04-12T23:55:16.189Z,37.03
2018-04-12T23:57:42.504Z,38.43
